Time;durP1;ratioP1;P1;durP2;ratioP2;P2;SDS_P1;SDS_P2;PMS_P1;PMS_P2;Temp;Humidity;BMP_temperature;BMP_pressure;BME280_temperature;BME280_humidity;BME280_pressure;Samples;Min_cycle;Max_cycle;Signal;HPM_P1;HPM_P2
2021/01/25 00:00:30;;;;;;;32.47;16.15;;;;;;;1.78;100.00;99109.28;4930586;28;20500;-61
2021/01/25 00:02:56;;;;;;;32.50;16.48;;;;;;;1.81;100.00;99103.50;4930103;28;20114;-58
2021/01/25 00:05:23;;;;;;;34.78;16.17;;;;;;;1.79;100.00;99100.03;4930296;28;20130;-61
2021/01/25 00:07:49;;;;;;;34.80;15.82;;;;;;;1.78;100.00;99106.75;4932764;28;20066;-60
2021/01/25 00:10:16;;;;;;;35.33;15.77;;;;;;;1.43;100.00;99105.50;4930110;28;20135;-60
2021/01/25 00:12:42;;;;;;;42.95;18.23;;;;;;;1.16;100.00;99112.06;4931850;28;20821;-58
2021/01/25 00:15:09;;;;;;;42.22;18.02;;;;;;;1.36;100.00;99116.16;4931201;28;20051;-59
2021/01/25 00:17:36;;;;;;;38.17;16.85;;;;;;;1.59;100.00;99111.97;4930473;28;20103;-55
2021/01/25 00:20:03;;;;;;;38.72;17.15;;;;;;;1.90;100.00;99115.56;4931727;28;20047;-60
2021/01/25 00:22:30;;;;;;;40.55;18.15;;;;;;;1.68;100.00;99112.28;4930077;28;20048;-55
2021/01/25 00:24:57;;;;;;;43.80;18.20;;;;;;;1.22;100.00;99112.28;4932790;28;20047;-59
2021/01/25 00:27:23;;;;;;;42.03;18.98;;;;;;;1.16;100.00;99110.41;4933940;28;20468;-61
2021/01/25 00:29:50;;;;;;;43.10;18.77;;;;;;;1.61;100.00;99109.47;4936398;28;20716;-57
2021/01/25 00:32:16;;;;;;;41.22;18.98;;;;;;;1.52;100.00;99108.34;4939099;28;20437;-61
2021/01/25 00:34:44;;;;;;;44.47;18.85;;;;;;;1.46;100.00;99112.31;4935648;28;20043;-61
2021/01/25 00:37:10;;;;;;;47.42;20.13;;;;;;;1.41;100.00;99112.16;4934520;28;20059;-59
2021/01/25 00:39:37;;;;;;;42.88;18.63;;;;;;;1.62;100.00;99114.59;4934551;28;20055;-56
2021/01/25 00:42:04;;;;;;;46.63;19.90;;;;;;;1.33;100.00;99117.72;4935072;28;20055;-61
2021/01/25 00:44:30;;;;;;;44.63;19.15;;;;;;;1.74;100.00;99116.69;4933495;28;20114;-58
2021/01/25 00:46:56;;;;;;;40.30;18.77;;;;;;;1.61;100.00;99110.34;4933204;28;20114;-56
2021/01/25 00:49:23;;;;;;;37.20;17.70;;;;;;;1.46;100.00;99118.22;4933954;28;20048;-60
2021/01/25 00:51:49;;;;;;;39.58;16.60;;;;;;;1.51;100.00;99113.34;4936122;28;20098;-59
2021/01/25 00:54:16;;;;;;;37.65;17.67;;;;;;;1.92;100.00;99119.84;4947662;28;20542;-60
2021/01/25 00:56:42;;;;;;;40.50;18.45;;;;;;;1.70;100.00;99115.69;4934996;28;20051;-60
2021/01/25 00:59:08;;;;;;;36.85;17.17;;;;;;;1.48;100.00;99121.66;4934367;28;20078;-60
2021/01/25 01:01:35;;;;;;;34.40;17.25;;;;;;;1.46;100.00;99118.22;4933896;28;20107;-57
2021/01/25 01:04:01;;;;;;;33.53;16.23;;;;;;;1.71;100.00;99124.13;4934905;28;20043;-60
2021/01/25 01:06:28;;;;;;;34.65;16.88;;;;;;;1.97;100.00;99127.56;4933369;28;20048;-57
2021/01/25 01:08:54;;;;;;;38.78;18.38;;;;;;;1.82;100.00;99130.44;4935912;28;20055;-61
2021/01/25 01:11:20;;;;;;;41.25;17.90;;;;;;;1.57;100.00;99121.13;4933319;28;20051;-61
2021/01/25 01:13:47;;;;;;;37.03;18.50;;;;;;;1.43;100.00;99127.31;4935001;28;20059;-59
2021/01/25 01:16:13;;;;;;;39.75;19.30;;;;;;;1.70;100.00;99124.94;4933107;28;20170;-61
2021/01/25 01:18:40;;;;;;;38.47;17.27;;;;;;;1.65;100.00;99129.81;4934487;28;20051;-58
2021/01/25 01:21:06;;;;;;;36.63;17.38;;;;;;;1.56;100.00;99133.69;4934545;28;20062;-59
2021/01/25 01:23:33;;;;;;;36.58;16.92;;;;;;;1.51;100.00;99134.38;4933152;28;20058;-60
2021/01/25 01:25:59;;;;;;;37.33;17.08;;;;;;;1.56;100.00;99134.53;4934851;28;20105;-61
2021/01/25 01:28:26;;;;;;;36.45;16.55;;;;;;;1.64;100.00;99132.31;4932820;28;20040;-60
2021/01/25 01:30:52;;;;;;;37.28;17.02;;;;;;;1.27;100.00;99130.94;4935404;28;20039;-60
2021/01/25 01:33:19;;;;;;;41.08;17.13;;;;;;;1.25;100.00;99130.91;4932995;28;20071;-59
2021/01/25 01:35:45;;;;;;;35.72;17.42;;;;;;;1.24;100.00;99130.81;4934329;28;20102;-61
2021/01/25 01:38:13;;;;;;;35.97;16.05;;;;;;;1.36;100.00;99128.78;4933390;28;20083;-57
2021/01/25 01:40:39;;;;;;;31.08;15.07;;;;;;;1.63;100.00;99133.09;4933958;28;20726;-58
2021/01/25 01:43:05;;;;;;;32.70;16.42;;;;;;;1.54;100.00;99131.13;4933517;28;20114;-60
2021/01/25 01:45:32;;;;;;;33.80;15.93;;;;;;;1.71;100.00;99140.16;4932322;28;20091;-60
2021/01/25 01:47:59;;;;;;;28.70;14.13;;;;;;;1.62;100.00;99134.78;4934539;28;20102;-57
2021/01/25 01:50:26;;;;;;;33.67;14.93;;;;;;;1.69;100.00;99138.38;4932580;28;20130;-59
2021/01/25 01:52:53;;;;;;;29.83;14.43;;;;;;;1.71;100.00;99132.59;4935031;28;20051;-53
2021/01/25 01:55:21;;;;;;;30.02;14.70;;;;;;;1.84;100.00;99136.38;4932178;28;20114;-58
2021/01/25 01:57:51;;;;;;;28.67;15.43;;;;;;;1.83;100.00;99133.81;4934248;28;20825;-60
2021/01/25 02:00:19;;;;;;;25.50;13.00;;;;;;;1.94;100.00;99138.44;4932188;28;20051;-59
2021/01/25 02:02:46;;;;;;;31.63;13.88;;;;;;;1.40;100.00;99143.22;4934054;28;20073;-58
2021/01/25 02:05:14;;;;;;;27.60;13.13;;;;;;;1.81;100.00;99136.28;4932630;28;20052;-60
2021/01/25 02:07:44;;;;;;;28.98;13.98;;;;;;;1.58;100.00;99142.19;4933407;28;20044;-60
2021/01/25 02:10:12;;;;;;;28.33;14.63;;;;;;;1.61;100.00;99150.69;4932929;28;20114;-58
2021/01/25 02:12:40;;;;;;;28.80;13.82;;;;;;;1.57;100.00;99140.44;4933280;28;20439;-60
2021/01/25 02:15:07;;;;;;;34.08;15.32;;;;;;;1.19;100.00;99143.25;4933624;28;20769;-58
2021/01/25 02:17:34;;;;;;;27.60;14.27;;;;;;;1.60;100.00;99143.09;4946770;28;20106;-58
2021/01/25 02:20:07;;;;;;;30.40;14.52;;;;;;;1.57;100.00;99146.34;4940588;28;20578;-62
2021/01/25 02:22:36;;;;;;;29.95;14.80;;;;;;;1.43;100.00;99145.88;4944943;28;20055;-57
2021/01/25 02:25:15;;;;;;;29.00;15.05;;;;;;;1.58;100.00;99138.00;4945150;28;20051;-58
2021/01/25 02:27:43;;;;;;;29.30;13.90;;;;;;;1.84;100.00;99148.13;4945276;28;20040;-61
2021/01/25 02:30:11;;;;;;;29.30;14.75;;;;;;;1.78;100.00;99152.16;4945527;28;20511;-61
2021/01/25 02:32:39;;;;;;;28.58;15.30;;;;;;;1.42;100.00;99145.78;4945268;28;20150;-61
2021/01/25 02:35:09;;;;;;;30.23;15.20;;;;;;;1.43;100.00;99147.50;4943248;28;20377;-54
2021/01/25 02:37:38;;;;;;;26.80;15.05;;;;;;;1.27;100.00;99151.97;4936951;28;20051;-60
2021/01/25 02:40:06;;;;;;;27.55;14.55;;;;;;;1.49;100.00;99152.78;4945119;28;20118;-58
2021/01/25 02:42:35;;;;;;;28.63;15.27;;;;;;;1.01;100.00;99155.16;4944789;28;20159;-59
2021/01/25 02:45:02;;;;;;;30.85;15.57;;;;;;;1.16;100.00;99158.28;4944817;28;20050;-60
2021/01/25 02:47:31;;;;;;;29.67;15.45;;;;;;;0.81;100.00;99153.53;4944332;28;20047;-60
2021/01/25 02:49:58;;;;;;;29.45;14.95;;;;;;;0.93;100.00;99156.56;4937174;28;20081;-59
2021/01/25 02:52:24;;;;;;;31.17;15.35;;;;;;;0.40;100.00;99147.69;4944844;28;20054;-60
2021/01/25 02:54:51;;;;;;;36.67;17.10;;;;;;;0.35;100.00;99151.69;4944437;28;20065;-61
2021/01/25 02:57:19;;;;;;;36.88;17.00;;;;;;;0.33;100.00;99160.84;4944509;28;20039;-60
2021/01/25 02:59:48;;;;;;;30.63;14.77;;;;;;;0.35;100.00;99155.06;4944476;28;20118;-61
2021/01/25 03:02:15;;;;;;;33.75;17.05;;;;;;;0.23;100.00;99160.47;4944133;28;20452;-59
2021/01/25 03:04:42;;;;;;;33.28;16.42;;;;;;;0.18;100.00;99164.41;4944807;28;20490;-60
2021/01/25 03:07:09;;;;;;;36.03;16.65;;;;;;;0.25;100.00;99165.53;4944473;28;20193;-61
2021/01/25 03:09:35;;;;;;;34.65;17.30;;;;;;;0.28;100.00;99169.81;4944435;28;20059;-60
2021/01/25 03:12:03;;;;;;;35.83;17.85;;;;;;;-0.01;100.00;99161.91;4944422;28;20110;-58
2021/01/25 03:14:30;;;;;;;33.83;16.83;;;;;;;0.07;100.00;99173.19;4944244;28;20063;-61
2021/01/25 03:16:57;;;;;;;32.63;16.20;;;;;;;0.29;100.00;99169.91;4944032;28;20055;-57
2021/01/25 03:19:24;;;;;;;39.20;17.90;;;;;;;0.10;100.00;99173.31;4944516;28;20179;-61
2021/01/25 03:21:53;;;;;;;35.75;17.27;;;;;;;0.06;100.00;99171.47;4943635;28;20511;-56
2021/01/25 03:24:20;;;;;;;37.63;17.45;;;;;;;0.09;100.00;99173.22;4943511;28;20051;-60
2021/01/25 03:26:48;;;;;;;35.45;17.63;;;;;;;0.09;100.00;99181.63;4943702;28;20059;-58
2021/01/25 03:29:14;;;;;;;37.78;17.95;;;;;;;0.01;100.00;99177.97;4944207;28;20051;-61
2021/01/25 03:31:41;;;;;;;40.45;18.08;;;;;;;-0.04;100.00;99181.94;4944225;28;20054;-59
2021/01/25 03:34:08;;;;;;;42.58;18.00;;;;;;;0.00;100.00;99183.78;4944166;28;20077;-56
2021/01/25 03:36:35;;;;;;;39.63;18.95;;;;;;;0.13;100.00;99188.53;4943714;28;20063;-58
2021/01/25 03:39:03;;;;;;;34.05;17.63;;;;;;;0.54;100.00;99188.53;4938763;28;20043;-59
2021/01/25 03:41:30;;;;;;;37.47;19.10;;;;;;;0.48;100.00;99190.00;4943789;28;20560;-59
2021/01/25 03:43:56;;;;;;;39.13;18.48;;;;;;;0.50;100.00;99200.13;4943715;28;20063;-61
2021/01/25 03:46:23;;;;;;;37.13;18.95;;;;;;;0.39;100.00;99196.34;4943664;28;20047;-60
2021/01/25 03:48:50;;;;;;;39.40;17.98;;;;;;;0.49;100.00;99201.81;4943618;28;20531;-56
2021/01/25 03:51:19;;;;;;;39.53;17.70;;;;;;;0.48;100.00;99192.53;4943754;28;20051;-60
2021/01/25 03:53:46;;;;;;;36.72;17.35;;;;;;;0.19;100.00;99200.53;4943101;28;20117;-61
2021/01/25 03:56:14;;;;;;;38.63;17.67;;;;;;;0.03;100.00;99196.47;4943709;28;20059;-57
2021/01/25 03:58:41;;;;;;;32.83;15.63;;;;;;;0.38;100.00;99205.53;4943145;28;20047;-59
2021/01/25 04:01:08;;;;;;;33.55;16.35;;;;;;;0.49;100.00;99211.03;4943467;28;20126;-60
2021/01/25 04:03:34;;;;;;;31.35;17.00;;;;;;;0.75;100.00;99212.97;4943454;28;20150;-56
2021/01/25 04:06:01;;;;;;;31.73;15.10;;;;;;;0.63;100.00;99214.09;4943207;28;20051;-58
2021/01/25 04:08:27;;;;;;;29.55;14.38;;;;;;;0.62;100.00;99215.78;4943445;28;20099;-61
2021/01/25 04:10:53;;;;;;;27.67;14.13;;;;;;;0.54;100.00;99214.59;4943264;28;20047;-59
2021/01/25 04:13:20;;;;;;;28.00;13.48;;;;;;;0.48;100.00;99219.38;4947618;28;20047;-61
2021/01/25 04:15:46;;;;;;;27.05;13.60;;;;;;;0.52;100.00;99218.72;4945379;28;20047;-58
2021/01/25 04:18:13;;;;;;;21.88;11.98;;;;;;;0.45;100.00;99225.13;4937616;28;20051;-57
2021/01/25 04:20:40;;;;;;;25.10;12.68;;;;;;;0.56;100.00;99232.28;4947697;28;20392;-61
2021/01/25 04:23:06;;;;;;;22.13;12.88;;;;;;;0.83;100.00;99225.84;4943142;28;20534;-61
2021/01/25 04:25:32;;;;;;;24.23;13.45;;;;;;;0.61;100.00;99226.66;4944356;28;20059;-59
2021/01/25 04:27:59;;;;;;;26.65;13.68;;;;;;;0.64;100.00;99235.97;4942956;28;20121;-58
2021/01/25 04:30:26;;;;;;;24.90;13.73;;;;;;;0.60;100.00;99229.09;4940223;28;20044;-60
2021/01/25 04:32:52;;;;;;;28.80;14.90;;;;;;;0.30;100.00;99218.59;4948394;28;20043;-58
2021/01/25 04:35:19;;;;;;;26.52;13.27;;;;;;;0.25;100.00;99219.25;4948156;28;20054;-58
2021/01/25 04:37:45;;;;;;;29.73;13.93;;;;;;;0.22;100.00;99214.09;4943436;28;20044;-58
2021/01/25 04:40:12;;;;;;;25.73;13.02;;;;;;;0.32;100.00;99214.47;4943943;28;20066;-61
2021/01/25 04:42:40;;;;;;;27.02;13.75;;;;;;;0.06;100.00;99219.28;4945430;28;20788;-60
2021/01/25 04:45:09;;;;;;;24.48;12.70;;;;;;;-0.16;100.00;99221.63;4945074;28;20142;-56
2021/01/25 04:47:37;;;;;;;28.38;13.85;;;;;;;-0.38;100.00;99230.72;4945519;28;20133;-58
2021/01/25 04:50:05;;;;;;;25.35;14.05;;;;;;;-0.38;100.00;99228.22;4945767;28;20082;-60
2021/01/25 04:52:33;;;;;;;24.77;12.95;;;;;;;-0.20;100.00;99230.69;4945587;28;20050;-58
2021/01/25 04:55:01;;;;;;;27.23;14.15;;;;;;;-0.28;100.00;99242.94;4945720;28;20048;-59
2021/01/25 04:57:31;;;;;;;26.48;13.20;;;;;;;-0.12;100.00;99238.59;4945093;28;20661;-59
2021/01/25 05:00:02;;;;;;;26.98;13.15;;;;;;;-0.06;100.00;99231.31;4944353;28;20059;-54
2021/01/25 05:02:34;;;;;;;24.30;12.88;;;;;;;0.01;100.00;99238.34;4940405;28;20130;-56
2021/01/25 05:05:06;;;;;;;31.63;13.85;;;;;;;-0.23;100.00;99232.19;4945780;28;20813;-57
2021/01/25 05:07:33;;;;;;;28.98;14.05;;;;;;;-0.31;100.00;99229.38;4945357;28;20082;-54
2021/01/25 05:10:05;;;;;;;26.50;13.25;;;;;;;-0.05;100.00;99238.06;4945846;28;20667;-53
2021/01/25 05:13:05;;;;;;;27.58;13.57;;;;;;;-0.16;100.00;99236.72;4948345;28;20535;-54
2021/01/25 05:15:33;;;;;;;29.40;14.23;;;;;;;-0.23;100.00;99233.09;4936887;28;20047;-56
2021/01/25 05:18:04;;;;;;;27.90;13.38;;;;;;;-0.21;100.00;99243.22;4947330;28;20138;-51
2021/01/25 05:20:32;;;;;;;26.00;13.20;;;;;;;0.58;100.00;99240.75;4949219;28;20094;-53
2021/01/25 05:23:11;;;;;;;24.92;12.82;;;;;;;-0.15;100.00;99238.44;4949577;28;20062;-53
2021/01/25 05:25:38;;;;;;;27.38;13.70;;;;;;;-0.37;100.00;99237.50;4948536;28;20047;-57
2021/01/25 05:28:07;;;;;;;27.88;14.50;;;;;;;-0.61;100.00;99242.25;4948612;28;20114;-58
2021/01/25 05:30:34;;;;;;;31.15;15.50;;;;;;;-0.41;100.00;99234.78;4948631;28;20541;-55
2021/01/25 05:33:01;;;;;;;26.35;14.38;;;;;;;0.39;100.00;99234.09;4948574;28;20106;-57
2021/01/25 05:35:32;;;;;;;30.33;14.52;;;;;;;0.22;100.00;99249.31;4948162;28;20821;-56
2021/01/25 05:37:59;;;;;;;28.98;14.35;;;;;;;0.58;100.00;99236.59;4948173;28;20079;-55
2021/01/25 05:40:27;;;;;;;27.65;14.18;;;;;;;0.47;100.00;99240.31;4948494;28;20077;-54
2021/01/25 05:42:55;;;;;;;30.80;15.02;;;;;;;0.06;100.00;99238.53;4948130;28;20047;-56
2021/01/25 05:45:23;;;;;;;28.60;14.25;;;;;;;0.05;100.00;99239.31;4948674;28;20047;-57
2021/01/25 05:47:55;;;;;;;28.00;14.45;;;;;;;0.32;100.00;99234.63;4947438;28;20047;-57
2021/01/25 05:50:35;;;;;;;29.23;14.48;;;;;;;0.12;100.00;99243.84;4945959;28;20071;-57
2021/01/25 05:53:09;;;;;;;29.60;16.05;;;;;;;0.21;100.00;99244.22;4942137;28;20102;-57
2021/01/25 05:55:36;;;;;;;33.08;16.10;;;;;;;0.75;100.00;99237.28;4945428;28;21013;-57
2021/01/25 05:58:04;;;;;;;30.58;15.20;;;;;;;0.22;100.00;99239.25;4939405;28;20852;-55
2021/01/25 06:00:31;;;;;;;33.65;17.70;;;;;;;-0.05;100.00;99248.13;4944623;28;20558;-58
2021/01/25 06:02:58;;;;;;;38.42;19.15;;;;;;;-0.12;100.00;99253.69;4943224;28;20055;-59
2021/01/25 06:05:31;;;;;;;36.17;19.67;;;;;;;-0.03;100.00;99252.44;4944830;28;20051;-54
2021/01/25 06:08:14;;;;;;;35.08;17.17;;;;;;;0.04;100.00;99245.16;4939163;28;20055;-58
2021/01/25 06:11:20;;;;;;;35.20;17.48;;;;;;;0.10;100.00;99248.81;4942791;28;20047;-58
2021/01/25 06:14:21;;;;;;;39.22;18.48;;;;;;;0.46;100.00;99248.66;4945087;28;20577;-52
2021/01/25 06:16:57;;;;;;;35.90;18.52;;;;;;;0.58;100.00;99249.16;4943581;28;20058;-53
2021/01/25 06:19:26;;;;;;;34.55;17.38;;;;;;;0.83;100.00;99260.25;4946533;28;20047;-54
2021/01/25 06:22:04;;;;;;;37.13;17.55;;;;;;;0.88;100.00;99261.31;4946774;28;20054;-58
2021/01/25 06:24:31;;;;;;;40.78;20.45;;;;;;;1.29;99.50;99257.91;4946601;28;20058;-58
2021/01/25 06:27:00;;;;;;;40.92;21.55;;;;;;;1.37;97.97;99264.13;4939042;28;20785;-56
2021/01/25 06:29:27;;;;;;;41.85;20.15;;;;;;;1.20;98.94;99262.59;4947077;28;20051;-58
2021/01/25 06:31:56;;;;;;;40.35;19.88;;;;;;;1.22;99.02;99273.63;4946469;28;20837;-51
2021/01/25 06:34:26;;;;;;;36.45;18.50;;;;;;;1.15;99.03;99269.13;4947442;28;20055;-55
2021/01/25 06:36:56;;;;;;;43.33;19.67;;;;;;;1.08;99.07;99282.28;4946464;28;20047;-58
2021/01/25 06:39:28;;;;;;;42.17;19.50;;;;;;;1.04;99.68;99281.31;4947139;28;20054;-51
2021/01/25 06:42:00;;;;;;;41.00;21.20;;;;;;;0.99;100.00;99278.59;4946695;28;20047;-55
2021/01/25 06:44:30;;;;;;;45.45;21.80;;;;;;;1.04;99.91;99282.97;4946847;28;20058;-57
2021/01/25 06:46:58;;;;;;;41.13;20.10;;;;;;;1.03;100.00;99277.06;4938800;28;20058;-55
2021/01/25 06:49:26;;;;;;;44.28;22.10;;;;;;;1.01;100.00;99281.16;4946676;28;20047;-54
2021/01/25 06:51:55;;;;;;;45.35;21.90;;;;;;;0.98;100.00;99279.41;4946602;28;20043;-59
2021/01/25 06:54:24;;;;;;;46.90;22.33;;;;;;;1.03;100.00;99282.09;4946538;28;20134;-57
2021/01/25 06:56:54;;;;;;;49.90;22.70;;;;;;;1.07;99.33;99289.00;4946498;28;20086;-58
2021/01/25 06:59:25;;;;;;;43.53;22.30;;;;;;;1.11;100.00;99295.88;4946720;28;20612;-56
2021/01/25 07:01:53;;;;;;;46.33;21.52;;;;;;;1.16;99.33;99298.59;4946171;28;20047;-59
2021/01/25 07:04:25;;;;;;;44.47;21.40;;;;;;;1.00;99.37;99297.09;4946310;28;20047;-56
2021/01/25 07:06:54;;;;;;;45.97;22.20;;;;;;;0.99;99.61;99301.28;4945769;28;20055;-53
2021/01/25 07:09:29;;;;;;;46.88;22.33;;;;;;;1.06;99.35;99311.59;4942126;28;20106;-54
2021/01/25 07:12:01;;;;;;;49.88;23.27;;;;;;;1.14;100.00;99308.59;4946113;28;20173;-51
2021/01/25 07:14:30;;;;;;;46.92;22.48;;;;;;;1.10;99.59;99311.78;4946144;28;20063;-56
2021/01/25 07:16:59;;;;;;;46.03;22.45;;;;;;;1.04;100.00;99309.03;4945898;28;20109;-57
2021/01/25 07:19:27;;;;;;;48.10;22.52;;;;;;;1.20;99.60;99310.50;4946497;28;20150;-55
2021/01/25 07:21:54;;;;;;;42.33;21.83;;;;;;;1.10;99.07;99308.41;4945876;28;20575;-52
2021/01/25 07:24:27;;;;;;;51.28;23.17;;;;;;;1.11;100.00;99315.16;4946118;28;20055;-52
2021/01/25 07:26:58;;;;;;;43.35;21.60;;;;;;;1.04;99.23;99326.66;4945841;28;20082;-52
2021/01/25 07:29:26;;;;;;;42.75;20.85;;;;;;;1.20;98.71;99329.03;4945760;28;20050;-54
2021/01/25 07:31:58;;;;;;;39.70;19.38;;;;;;;1.13;98.24;99329.56;4943044;28;20043;-55
2021/01/25 07:34:30;;;;;;;42.92;22.33;;;;;;;1.20;98.27;99333.19;4942774;28;20047;-53
2021/01/25 07:36:57;;;;;;;44.05;21.80;;;;;;;1.09;99.51;99331.91;4938061;28;20123;-49
2021/01/25 07:39:24;;;;;;;50.63;24.38;;;;;;;1.19;99.32;99337.38;4945803;28;20047;-57
2021/01/25 07:41:50;;;;;;;49.20;22.52;;;;;;;1.03;99.92;99335.03;4946091;28;20055;-55
2021/01/25 07:44:25;;;;;;;50.25;23.33;;;;;;;1.12;100.00;99342.97;4945647;28;20571;-54
2021/01/25 07:47:02;;;;;;;48.33;22.15;;;;;;;0.97;100.00;99338.16;4945620;28;20047;-51
2021/01/25 07:49:30;;;;;;;48.30;24.63;;;;;;;1.28;100.00;99346.97;4946063;28;20055;-55
2021/01/25 07:51:57;;;;;;;52.63;23.77;;;;;;;1.39;97.61;99347.44;4945574;28;20058;-53
2021/01/25 07:54:29;;;;;;;44.97;22.40;;;;;;;1.40;97.82;99349.16;4945820;28;20106;-52
2021/01/25 07:56:59;;;;;;;45.30;20.73;;;;;;;1.49;98.82;99349.50;4945398;28;20574;-57
2021/01/25 07:59:34;;;;;;;39.78;20.90;;;;;;;1.44;97.77;99349.34;4946113;28;20051;-54
2021/01/25 08:02:11;;;;;;;47.05;22.65;;;;;;;1.50;98.24;99347.03;4943989;28;20059;-52
2021/01/25 08:04:43;;;;;;;43.08;21.90;;;;;;;1.44;98.30;99343.44;4945446;28;20558;-54
2021/01/25 08:07:14;;;;;;;51.90;24.45;;;;;;;1.71;98.06;99346.16;4945534;28;20055;-56
2021/01/25 08:09:43;;;;;;;46.13;22.70;;;;;;;1.42;98.53;99355.09;4946028;28;20055;-56
2021/01/25 08:12:11;;;;;;;46.08;23.23;;;;;;;1.34;100.00;99351.41;4945862;28;20050;-54
2021/01/25 08:14:43;;;;;;;45.25;22.83;;;;;;;1.60;97.52;99360.88;4945518;28;20047;-56
2021/01/25 08:17:18;;;;;;;46.40;23.17;;;;;;;1.58;98.05;99354.06;4945206;28;20047;-53
2021/01/25 08:20:09;;;;;;;50.67;23.25;;;;;;;1.58;97.97;99366.69;4945709;28;20051;-58
2021/01/25 08:22:39;;;;;;;41.40;21.60;;;;;;;1.45;98.35;99372.88;4945618;28;20058;-58
2021/01/25 08:25:07;;;;;;;44.78;21.50;;;;;;;1.75;98.33;99374.09;4945307;28;20055;-54
2021/01/25 08:27:36;;;;;;;45.47;22.67;;;;;;;1.53;98.98;99381.63;4945480;28;20051;-54
2021/01/25 08:30:13;;;;;;;45.80;22.80;;;;;;;1.87;96.07;99383.81;4945689;28;20059;-55
2021/01/25 08:32:47;;;;;;;45.20;21.75;;;;;;;1.51;97.00;99380.69;4945614;28;20054;-55
2021/01/25 08:35:26;;;;;;;45.58;23.10;;;;;;;1.41;98.30;99386.16;4941843;28;20067;-55
2021/01/25 08:37:53;;;;;;;48.10;23.92;;;;;;;1.79;96.84;99386.03;4944846;28;20057;-54
2021/01/25 08:40:22;;;;;;;48.47;22.70;;;;;;;1.85;97.72;99382.03;4939933;28;20055;-58
2021/01/25 08:42:49;;;;;;;48.35;23.08;;;;;;;1.59;98.04;99391.97;4945073;28;20062;-55
2021/01/25 08:45:27;;;;;;;45.58;23.17;;;;;;;2.03;96.47;99390.31;4940341;28;20051;-56
2021/01/25 08:48:06;;;;;;;42.45;21.30;;;;;;;1.92;97.67;99387.38;4940407;28;20055;-56
2021/01/25 08:50:33;;;;;;;45.03;22.17;;;;;;;2.14;96.15;99393.25;4947721;28;20134;-58
2021/01/25 08:53:06;;;;;;;42.45;21.98;;;;;;;1.84;97.35;99390.41;4948204;28;20055;-58
2021/01/25 08:55:40;;;;;;;45.25;21.48;;;;;;;2.05;97.02;99393.78;4949017;28;20738;-50
2021/01/25 08:58:16;;;;;;;43.33;21.02;;;;;;;2.29;95.10;99397.22;4948486;28;20738;-57
2021/01/25 09:00:43;;;;;;;40.22;21.20;;;;;;;2.16;96.63;99396.69;4938593;28;20099;-54
2021/01/25 09:03:12;;;;;;;39.30;21.75;;;;;;;2.41;96.07;99406.06;4935957;28;20051;-54
2021/01/25 09:05:39;;;;;;;38.33;20.63;;;;;;;2.41;92.35;99413.66;4936102;28;20534;-55
2021/01/25 09:08:06;;;;;;;39.58;20.95;;;;;;;2.48;94.82;99413.91;4936378;28;20102;-56
2021/01/25 09:10:35;;;;;;;41.55;21.35;;;;;;;2.25;94.07;99410.53;4936075;28;20766;-59
2021/01/25 09:13:04;;;;;;;45.35;21.40;;;;;;;1.82;94.39;99417.25;4936585;28;20451;-51
2021/01/25 09:15:32;;;;;;;38.08;21.00;;;;;;;2.16;95.18;99419.41;4934926;28;20067;-52
2021/01/25 09:17:58;;;;;;;46.85;22.63;;;;;;;1.93;97.15;99419.38;4938369;28;20571;-53
2021/01/25 09:20:26;;;;;;;39.08;20.42;;;;;;;2.05;94.39;99424.06;4936349;28;20079;-56
2021/01/25 09:22:53;;;;;;;44.53;20.85;;;;;;;2.28;95.23;99424.94;4941055;28;20134;-52
2021/01/25 09:25:22;;;;;;;40.45;20.17;;;;;;;2.26;96.08;99432.44;4934706;28;20055;-55
2021/01/25 09:27:52;;;;;;;44.30;21.83;;;;;;;2.24;94.40;99433.22;4938264;28;20071;-56
2021/01/25 09:30:19;;;;;;;46.53;23.15;;;;;;;2.15;96.62;99438.75;4941070;28;20106;-55
2021/01/25 09:32:45;;;;;;;43.50;21.77;;;;;;;2.37;95.11;99445.50;4937164;28;20464;-52
2021/01/25 09:35:16;;;;;;;42.08;21.98;;;;;;;2.22;95.60;99444.94;4935288;28;20098;-56
2021/01/25 09:37:43;;;;;;;43.78;21.63;;;;;;;2.22;96.32;99442.41;4935914;28;20051;-53
2021/01/25 09:40:11;;;;;;;39.90;21.65;;;;;;;2.53;95.66;99451.97;4935242;28;20129;-49
2021/01/25 09:42:38;;;;;;;44.05;21.48;;;;;;;2.45;96.42;99459.28;4935272;28;20115;-57
2021/01/25 09:45:13;;;;;;;45.60;22.80;;;;;;;2.73;93.77;99453.59;4937905;28;20559;-56
2021/01/25 09:47:40;;;;;;;46.53;23.00;;;;;;;2.38;95.14;99454.81;4935172;28;20110;-58
2021/01/25 09:50:13;;;;;;;44.33;22.10;;;;;;;2.64;92.55;99457.47;4935492;28;20450;-55
2021/01/25 09:52:44;;;;;;;51.30;26.15;;;;;;;2.85;93.03;99453.19;4940643;28;20059;-56
2021/01/25 09:55:13;;;;;;;43.60;21.25;;;;;;;3.00;92.15;99446.13;4939103;28;20054;-53
2021/01/25 09:57:39;;;;;;;39.38;20.42;;;;;;;2.56;94.90;99452.09;4933312;28;20055;-54
2021/01/25 10:00:08;;;;;;;42.22;22.67;;;;;;;2.77;92.84;99455.44;4935433;28;20065;-58
2021/01/25 10:02:35;;;;;;;48.78;24.55;;;;;;;2.35;94.91;99461.38;4934795;28;20086;-56
2021/01/25 10:05:03;;;;;;;42.78;22.23;;;;;;;2.44;93.45;99461.75;4935563;28;20154;-56
2021/01/25 10:07:34;;;;;;;41.80;22.20;;;;;;;2.74;92.25;99464.56;4934117;28;20048;-54
2021/01/25 10:10:07;;;;;;;44.22;21.88;;;;;;;2.54;93.59;99472.28;4934097;28;20138;-58
2021/01/25 10:12:34;;;;;;;45.28;22.10;;;;;;;2.67;94.62;99470.19;4943528;28;20051;-54
2021/01/25 10:15:00;;;;;;;46.15;23.85;;;;;;;2.85;94.35;99470.88;4936019;28;20050;-54
2021/01/25 10:17:30;;;;;;;40.38;20.13;;;;;;;3.09;91.75;99470.88;4933750;28;20053;-57
2021/01/25 10:19:57;;;;;;;37.13;20.52;;;;;;;2.94;92.25;99468.69;4932515;28;20074;-52
2021/01/25 10:22:23;;;;;;;39.35;20.35;;;;;;;2.99;91.45;99473.91;4933026;28;20059;-53
2021/01/25 10:24:50;;;;;;;41.33;20.40;;;;;;;2.77;91.84;99478.19;4935524;28;20059;-57
2021/01/25 10:27:17;;;;;;;38.80;19.83;;;;;;;3.06;90.46;99466.59;4932816;28;20458;-54
2021/01/25 10:29:43;;;;;;;35.80;19.13;;;;;;;2.53;91.60;99475.59;4935251;28;20479;-54
2021/01/25 10:32:15;;;;;;;42.25;19.70;;;;;;;2.70;91.15;99476.22;4933751;28;20055;-57
2021/01/25 10:34:44;;;;;;;42.95;21.83;;;;;;;2.89;91.28;99487.88;4935205;28;20044;-58
2021/01/25 10:37:11;;;;;;;42.05;21.25;;;;;;;2.75;92.39;99489.91;4937397;28;20456;-55
2021/01/25 10:39:40;;;;;;;39.40;20.05;;;;;;;2.77;91.52;99485.78;4936715;28;20428;-52
2021/01/25 10:42:07;;;;;;;40.50;22.20;;;;;;;2.83;92.95;99489.34;4934597;28;20051;-56
2021/01/25 10:44:34;;;;;;;42.97;21.40;;;;;;;3.31;90.97;99487.69;4933609;28;20055;-50
2021/01/25 10:47:03;;;;;;;41.25;22.70;;;;;;;3.40;90.38;99492.22;4936420;28;20065;-50
2021/01/25 10:49:32;;;;;;;40.92;21.20;;;;;;;3.13;88.87;99481.97;4933274;28;20142;-49
2021/01/25 10:51:59;;;;;;;36.78;19.55;;;;;;;3.41;90.68;99491.41;4933333;28;20055;-55
2021/01/25 10:54:25;;;;;;;40.20;20.45;;;;;;;3.03;90.21;99493.44;4933231;28;20051;-54
2021/01/25 10:56:52;;;;;;;38.83;21.67;;;;;;;3.19;89.62;99484.72;4935377;28;20047;-54
2021/01/25 10:59:19;;;;;;;41.47;21.58;;;;;;;2.78;92.55;99494.22;4932975;28;20054;-54
2021/01/25 11:01:46;;;;;;;38.55;20.05;;;;;;;3.36;88.63;99490.38;4934318;28;20047;-52
2021/01/25 11:04:12;;;;;;;43.70;20.30;;;;;;;2.94;91.03;99488.03;4935587;28;20151;-54
2021/01/25 11:06:39;;;;;;;41.45;21.17;;;;;;;2.96;91.59;99491.50;4932957;28;20059;-55
2021/01/25 11:09:05;;;;;;;45.25;22.55;;;;;;;3.11;90.91;99494.59;4933826;28;20055;-55
2021/01/25 11:11:32;;;;;;;40.45;20.70;;;;;;;3.39;88.50;99503.16;4932993;28;20801;-52
2021/01/25 11:13:59;;;;;;;39.97;19.83;;;;;;;3.25;90.94;99503.53;4934796;28;20417;-53
2021/01/25 11:16:25;;;;;;;35.47;19.27;;;;;;;3.20;89.72;99494.06;4932868;28;20047;-57
2021/01/25 11:18:52;;;;;;;34.97;17.55;;;;;;;3.19;88.61;99497.38;4935319;28;20047;-54
2021/01/25 11:21:18;;;;;;;36.40;18.70;;;;;;;2.81;92.81;99502.75;4933008;28;20048;-58
2021/01/25 11:23:45;;;;;;;38.20;19.33;;;;;;;3.20;90.25;99502.50;4934668;28;20051;-53
2021/01/25 11:26:12;;;;;;;39.45;20.52;;;;;;;2.67;93.62;99503.03;4932949;28;20047;-56